createdAt,value
2022-10-21T00:00:08.319Z,98804.72
2022-10-21T00:03:19.137Z,98804.78
2022-10-21T00:06:25.567Z,98810.03
2022-10-21T00:09:31.165Z,98809.22
2022-10-21T00:12:39.110Z,98811.81
2022-10-21T00:15:47.830Z,98804.91
2022-10-21T00:18:54.344Z,98790.22
2022-10-21T00:22:00.184Z,98794.47
2022-10-21T00:25:09.552Z,98796.25
2022-10-21T00:28:15.148Z,98811.00
2022-10-21T00:31:24.391Z,98799.75
2022-10-21T00:34:31.184Z,98802.38
2022-10-21T00:37:37.940Z,98801.50
2022-10-21T00:40:43.631Z,98792.91
2022-10-21T00:44:03.580Z,98797.22
2022-10-21T00:47:16.195Z,98798.13
2022-10-21T00:50:29.345Z,98796.44
2022-10-21T00:53:36.489Z,98791.25
2022-10-21T00:56:46.577Z,98791.25
2022-10-21T00:59:56.576Z,98793.00
2022-10-21T01:03:07.434Z,98787.81
2022-10-21T01:06:15.745Z,98777.44
2022-10-21T01:09:23.414Z,98775.75
2022-10-21T01:12:45.963Z,98772.25
2022-10-21T01:15:58.893Z,98771.44
2022-10-21T01:19:30.968Z,98766.31
2022-10-21T01:22:59.147Z,98766.38
2022-10-21T01:26:33.038Z,98760.38
2022-10-21T01:30:25.942Z,98745.75
2022-10-21T01:33:43.261Z,98741.56
2022-10-21T01:36:57.991Z,98740.69
2022-10-21T01:40:10.668Z,98729.50
2022-10-21T01:43:21.934Z,98732.97
2022-10-21T01:46:32.598Z,98742.53
2022-10-21T01:49:44.993Z,98733.03
2022-10-21T01:52:55.365Z,98727.09
2022-10-21T01:56:06.846Z,98717.72
2022-10-21T01:59:16.152Z,98723.03
2022-10-21T02:02:23.483Z,98730.97
2022-10-21T02:05:35.004Z,98731.03
2022-10-21T02:08:40.721Z,98730.19
2022-10-21T02:11:50.113Z,98725.09
2022-10-21T02:14:56.788Z,98716.56
2022-10-21T02:18:07.892Z,98715.72
2022-10-21T02:21:21.002Z,98714.97
2022-10-21T02:24:32.123Z,98727.09
2022-10-21T02:27:38.052Z,98716.81
2022-10-21T02:30:53.517Z,98712.53
2022-10-21T02:34:07.798Z,98718.66
2022-10-21T02:37:30.164Z,98720.41
2022-10-21T02:40:40.283Z,98715.25
2022-10-21T02:43:52.085Z,98712.72
2022-10-21T02:46:57.737Z,98698.94
2022-10-21T02:50:06.468Z,98701.53
2022-10-21T02:53:16.572Z,98696.34
2022-10-21T02:56:23.073Z,98694.69
2022-10-21T02:59:28.802Z,98696.50
2022-10-21T03:02:35.545Z,98690.53
2022-10-21T03:05:41.082Z,98682.75
2022-10-21T03:08:50.361Z,98677.53
2022-10-21T03:11:55.932Z,98673.97
2022-10-21T03:15:03.506Z,98671.31
2022-10-21T03:18:09.094Z,98673.91
2022-10-21T03:21:15.518Z,98665.25
2022-10-21T03:24:28.531Z,98666.94
2022-10-21T03:27:35.554Z,98662.66
2022-10-21T03:30:41.174Z,98666.13
2022-10-21T03:33:47.573Z,98666.13
2022-10-21T03:36:53.146Z,98658.31
2022-10-21T03:40:05.437Z,98661.75
2022-10-21T03:43:13.951Z,98653.25
2022-10-21T03:46:20.664Z,98663.53
2022-10-21T03:49:26.588Z,98651.41
2022-10-21T03:52:33.137Z,98651.41
2022-10-21T03:55:42.157Z,98645.41
2022-10-21T03:58:48.615Z,98653.19
2022-10-21T04:01:54.366Z,98640.38
2022-10-21T04:05:00.845Z,98643.09
2022-10-21T04:08:08.030Z,98643.09
2022-10-21T04:11:17.235Z,98644.03
2022-10-21T04:14:23.014Z,98653.59
2022-10-21T04:17:29.868Z,98636.34
2022-10-21T04:20:35.817Z,98641.53
2022-10-21T04:23:42.669Z,98645.06
2022-10-21T04:26:50.999Z,98645.13
2022-10-21T04:29:57.417Z,98649.47
2022-10-21T04:33:03.549Z,98633.06
2022-10-21T04:36:10.643Z,98632.91
2022-10-21T04:39:16.389Z,98630.28
2022-10-21T04:45:37.713Z,98627.63
2022-10-21T04:48:44.313Z,98622.38
2022-10-21T04:51:49.980Z,98617.13
2022-10-21T04:54:56.481Z,98616.28
2022-10-21T04:58:07.451Z,98617.13
2022-10-21T05:01:14.105Z,98617.94
2022-10-21T05:04:19.713Z,98611.97
2022-10-21T05:07:26.206Z,98618.81
2022-10-21T05:10:32.112Z,98622.31
2022-10-21T05:13:41.367Z,98614.47
2022-10-21T05:16:47.023Z,98622.19
2022-10-21T05:19:58.992Z,98616.97
2022-10-21T05:23:06.620Z,98611.66
2022-10-21T05:26:13.110Z,98610.69
2022-10-21T05:29:21.615Z,98614.81
2022-10-21T05:32:28.461Z,98601.69
2022-10-21T05:35:34.070Z,98591.19
2022-10-21T05:38:40.586Z,98609.25
2022-10-21T05:41:47.997Z,98633.19
2022-10-21T05:44:57.603Z,98619.13
2022-10-21T05:48:03.551Z,98628.28
2022-10-21T05:51:10.655Z,98636.56
2022-10-21T05:54:16.424Z,98624.22
2022-10-21T05:57:22.970Z,98627.31
2022-10-21T06:00:31.498Z,98624.38
2022-10-21T06:03:38.263Z,98630.13
2022-10-21T06:06:43.983Z,98631.56
2022-10-21T06:09:50.535Z,98630.41
2022-10-21T06:12:56.118Z,98626.66
2022-10-21T06:19:16.789Z,98622.72
2022-10-21T06:22:23.586Z,98626.84
2022-10-21T06:25:29.875Z,98630.22
2022-10-21T06:28:38.486Z,98627.72
2022-10-21T06:31:46.911Z,98642.19
2022-10-21T06:34:53.400Z,98640.47
2022-10-21T06:37:58.939Z,98633.41
2022-10-21T06:41:12.443Z,98638.50
2022-10-21T06:44:19.152Z,98640.16
2022-10-21T06:47:28.360Z,98634.00
2022-10-21T06:50:34.224Z,98636.41
2022-10-21T06:53:41.868Z,98628.41
2022-10-21T06:56:47.445Z,98621.22
2022-10-21T06:59:53.896Z,98619.25
2022-10-21T07:03:03.832Z,98617.97
2022-10-21T07:06:10.887Z,98614.75
2022-10-21T07:09:16.599Z,98605.41
2022-10-21T07:12:23.738Z,98603.91
2022-10-21T07:15:29.616Z,98595.44
2022-10-21T07:18:41.871Z,98598.09
2022-10-21T07:21:48.328Z,98594.59
2022-10-21T07:24:55.277Z,98585.31
2022-10-21T07:28:00.977Z,98581.47
2022-10-21T07:31:09.100Z,98578.44
2022-10-21T07:34:17.567Z,98573.66
2022-10-21T07:37:23.975Z,98559.53
2022-10-21T07:40:30.347Z,98559.22
2022-10-21T07:43:37.077Z,98563.50
2022-10-21T07:46:45.899Z,98567.53
2022-10-21T07:49:55.378Z,98561.75
2022-10-21T07:53:11.917Z,98561.09
2022-10-21T07:56:22.531Z,98544.63
2022-10-21T07:59:28.173Z,98535.13
2022-10-21T08:02:35.671Z,98531.88
2022-10-21T08:05:45.270Z,98524.97
2022-10-21T08:08:51.773Z,98517.19
2022-10-21T08:11:57.671Z,98512.09
2022-10-21T08:15:04.086Z,98506.16
2022-10-21T08:18:09.870Z,98511.53
2022-10-21T08:21:19.530Z,98502.97
2022-10-21T08:24:25.297Z,98503.94
2022-10-21T08:27:39.797Z,98503.16
2022-10-21T08:30:45.906Z,98483.16
2022-10-21T08:33:53.075Z,98475.47
2022-10-21T08:37:03.609Z,98470.44
2022-10-21T08:40:13.201Z,98475.78
2022-10-21T08:43:24.103Z,98455.28
2022-10-21T08:46:36.107Z,98459.03
2022-10-21T08:49:52.847Z,98459.22
2022-10-21T08:53:08.229Z,98443.56
2022-10-21T08:56:20.039Z,98448.22
2022-10-21T08:59:28.592Z,98435.78
2022-10-21T09:02:52.086Z,98436.81
2022-10-21T09:06:21.637Z,98438.56
2022-10-21T09:09:36.991Z,98443.31
2022-10-21T09:12:57.202Z,98446.03
2022-10-21T09:16:10.622Z,98430.44
2022-10-21T09:19:32.630Z,98429.63
2022-10-21T09:22:51.887Z,98431.47
2022-10-21T09:26:06.568Z,98429.97
2022-10-21T09:29:31.225Z,98426.22
2022-10-21T09:32:41.796Z,98415.94
2022-10-21T09:35:51.925Z,98411.44
2022-10-21T09:39:03.397Z,98408.06
2022-10-21T09:42:35.241Z,98415.16
2022-10-21T09:45:43.433Z,98402.03
2022-10-21T09:52:20.411Z,98392.91
2022-10-21T09:55:28.271Z,98388.34
2022-10-21T09:58:56.715Z,98390.88
2022-10-21T10:02:10.828Z,98389.34
2022-10-21T10:05:37.559Z,98389.19
2022-10-21T10:08:45.045Z,98381.25
2022-10-21T10:11:55.147Z,98383.59
2022-10-21T10:15:30.703Z,98378.78
2022-10-21T10:18:38.113Z,98398.81
2022-10-21T10:21:43.873Z,98390.50
2022-10-21T10:24:50.318Z,98394.56
2022-10-21T10:27:59.542Z,98388.97
2022-10-21T10:31:10.114Z,98372.97
2022-10-21T10:34:24.895Z,98381.13
2022-10-21T10:37:35.141Z,98380.47
2022-10-21T10:40:43.987Z,98372.03
2022-10-21T10:43:53.133Z,98381.44
2022-10-21T10:47:06.254Z,98385.47
2022-10-21T10:50:48.064Z,98380.88
2022-10-21T10:54:04.514Z,98370.03
2022-10-21T10:57:17.100Z,98369.28
2022-10-21T11:00:24.643Z,98354.44
2022-10-21T11:03:41.471Z,98353.63
2022-10-21T11:06:54.224Z,98358.03
2022-10-21T11:10:09.879Z,98346.06
2022-10-21T11:13:18.508Z,98345.03
2022-10-21T11:16:59.471Z,98338.66
2022-10-21T11:20:23.336Z,98332.25
2022-10-21T11:23:48.767Z,98330.00
2022-10-21T11:27:00.799Z,98314.88
2022-10-21T11:30:15.263Z,98311.56
2022-10-21T11:33:31.967Z,98307.81
2022-10-21T11:36:51.619Z,98300.66
2022-10-21T11:40:03.379Z,98288.25
2022-10-21T11:43:24.473Z,98289.84
2022-10-21T11:46:41.944Z,98275.66
2022-10-21T11:50:00.039Z,98278.09
2022-10-21T11:53:31.561Z,98274.94
2022-10-21T11:56:45.596Z,98262.22
2022-10-21T12:00:07.073Z,98257.50
2022-10-21T12:03:37.904Z,98266.56
2022-10-21T12:06:52.354Z,98249.00
2022-10-21T12:10:07.465Z,98237.63
2022-10-21T12:13:21.074Z,98251.63
2022-10-21T12:16:31.311Z,98259.63
2022-10-21T12:19:39.676Z,98240.53
2022-10-21T12:22:46.721Z,98234.88
2022-10-21T12:26:07.057Z,98209.75
2022-10-21T12:29:21.394Z,98209.56
2022-10-21T12:32:32.477Z,98207.88
2022-10-21T12:35:50.542Z,98214.81
2022-10-21T12:38:57.795Z,98219.88
2022-10-21T12:42:15.613Z,98214.59
2022-10-21T12:45:40.169Z,98216.09
2022-10-21T12:48:49.007Z,98215.84
2022-10-21T12:51:59.484Z,98210.47
2022-10-21T12:55:09.475Z,98212.06
2022-10-21T12:58:30.687Z,98212.25
2022-10-21T13:01:42.417Z,98204.66
2022-10-21T13:04:50.772Z,98197.25
2022-10-21T13:08:18.655Z,98192.13
2022-10-21T13:11:27.188Z,98185.34
2022-10-21T13:14:42.829Z,98179.88
2022-10-21T13:17:53.769Z,98185.75
2022-10-21T13:21:03.342Z,98197.25
2022-10-21T13:24:17.004Z,98194.91
2022-10-21T13:27:30.128Z,98199.69
2022-10-21T13:30:41.006Z,98203.09
2022-10-21T13:33:55.047Z,98210.03
2022-10-21T13:37:01.123Z,98208.16
2022-10-21T13:40:17.217Z,98202.63
2022-10-21T13:43:41.386Z,98194.41
2022-10-21T13:46:50.833Z,98193.06
2022-10-21T13:49:59.255Z,98194.31
2022-10-21T13:53:21.686Z,98196.75
2022-10-21T13:56:29.229Z,98197.69
2022-10-21T13:59:35.712Z,98194.09
2022-10-21T14:02:49.817Z,98195.66
2022-10-21T14:06:01.115Z,98201.03
2022-10-21T14:09:10.579Z,98208.22
2022-10-21T14:12:25.805Z,98203.91
2022-10-21T14:15:40.868Z,98204.88
2022-10-21T14:18:52.090Z,98215.53
2022-10-21T14:22:00.394Z,98220.00
2022-10-21T14:25:15.864Z,98214.59
2022-10-21T14:28:22.276Z,98206.59
2022-10-21T14:31:28.860Z,98209.72
2022-10-21T14:34:39.265Z,98202.94
2022-10-21T14:37:47.382Z,98204.34
2022-10-21T14:41:02.751Z,98208.19
2022-10-21T14:44:16.009Z,98219.69
2022-10-21T14:47:23.953Z,98215.03
2022-10-21T14:50:33.262Z,98214.63
2022-10-21T14:53:46.483Z,98209.59
2022-10-21T14:56:52.981Z,98218.63
2022-10-21T14:59:59.094Z,98218.13
2022-10-21T15:03:07.352Z,98212.31
2022-10-21T15:06:18.472Z,98217.84
2022-10-21T15:09:25.132Z,98213.00
2022-10-21T15:12:35.457Z,98214.88
2022-10-21T15:15:49.752Z,98217.63
2022-10-21T15:19:00.547Z,98209.84
2022-10-21T15:22:25.938Z,98211.75
2022-10-21T15:25:31.746Z,98220.66
2022-10-21T15:28:38.923Z,98231.84
2022-10-21T15:31:44.680Z,98229.81
2022-10-21T15:34:54.783Z,98227.63
2022-10-21T15:38:03.304Z,98233.19
2022-10-21T15:41:13.371Z,98232.63
2022-10-21T15:44:24.133Z,98233.78
2022-10-21T15:47:30.667Z,98238.31
2022-10-21T15:50:36.994Z,98240.09
2022-10-21T15:53:46.237Z,98245.88
2022-10-21T15:56:53.381Z,98241.13
2022-10-21T15:59:59.842Z,98244.22
2022-10-21T16:03:07.432Z,98249.56
2022-10-21T16:06:17.397Z,98249.03
2022-10-21T16:09:27.613Z,98238.72
2022-10-21T16:12:34.078Z,98241.56
2022-10-21T16:15:39.676Z,98244.56
2022-10-21T16:18:46.789Z,98234.13
2022-10-21T16:21:52.367Z,98238.28
2022-10-21T16:25:03.525Z,98237.44
2022-10-21T16:28:09.174Z,98243.72
2022-10-21T16:31:17.509Z,98248.31
2022-10-21T16:34:23.222Z,98242.13
2022-10-21T16:37:31.064Z,98243.66
2022-10-21T16:40:39.564Z,98245.44
2022-10-21T16:43:46.917Z,98261.59
2022-10-21T16:50:41.631Z,98271.38
2022-10-21T16:53:48.179Z,98267.28
2022-10-21T16:56:56.624Z,98268.31
2022-10-21T17:00:03.456Z,98263.34
2022-10-21T17:03:09.485Z,98271.44
2022-10-21T17:06:20.279Z,98268.31
2022-10-21T17:09:25.885Z,98273.03
2022-10-21T17:12:35.812Z,98275.22
2022-10-21T17:15:41.686Z,98268.44
2022-10-21T17:18:48.435Z,98265.91
2022-10-21T17:21:54.146Z,98262.56
2022-10-21T17:25:00.624Z,98267.81
2022-10-21T17:28:10.447Z,98278.31
2022-10-21T17:31:18.407Z,98282.72
2022-10-21T17:34:30.833Z,98271.06
2022-10-21T17:37:37.617Z,98264.41
2022-10-21T17:40:43.719Z,98260.00
2022-10-21T17:43:52.996Z,98257.31
2022-10-21T17:46:58.631Z,98261.78
2022-10-21T17:50:07.292Z,98255.59
2022-10-21T17:53:12.974Z,98254.84
2022-10-21T17:56:19.852Z,98243.41
2022-10-21T17:59:28.337Z,98238.16
2022-10-21T18:02:36.076Z,98236.19
2022-10-21T18:05:44.069Z,98219.75
2022-10-21T18:08:50.835Z,98216.41
2022-10-21T18:11:58.608Z,98215.47
2022-10-21T18:15:12.204Z,98210.84
2022-10-21T18:18:18.135Z,98206.44
2022-10-21T18:21:26.200Z,98200.91
2022-10-21T18:24:32.053Z,98206.25
2022-10-21T18:27:40.295Z,98199.13
2022-10-21T18:30:48.987Z,98191.78
2022-10-21T18:33:57.369Z,98195.25
2022-10-21T18:37:03.300Z,98191.78
2022-10-21T18:40:12.995Z,98181.28
2022-10-21T18:43:18.630Z,98177.84
2022-10-21T18:46:27.930Z,98181.09
2022-10-21T18:49:33.526Z,98179.63
2022-10-21T18:52:39.932Z,98175.28
2022-10-21T18:55:45.546Z,98175.28
2022-10-21T18:58:52.969Z,98170.78
2022-10-21T19:02:03.584Z,98170.59
2022-10-21T19:05:11.863Z,98168.16
2022-10-21T19:08:17.488Z,98167.59
2022-10-21T19:11:23.973Z,98174.84
2022-10-21T19:14:29.612Z,98180.38
2022-10-21T19:17:41.239Z,98174.69
2022-10-21T19:20:47.049Z,98174.78
2022-10-21T19:23:54.088Z,98174.22
2022-10-21T19:27:03.545Z,98169.38
2022-10-21T19:30:10.888Z,98157.66
2022-10-21T19:33:19.253Z,98164.31
2022-10-21T19:36:25.737Z,98164.41
2022-10-21T19:39:31.423Z,98159.59
2022-10-21T19:42:38.217Z,98150.25
2022-10-21T19:45:43.975Z,98162.63
2022-10-21T19:48:53.283Z,98163.94
2022-10-21T19:51:58.887Z,98168.13
2022-10-21T19:55:08.868Z,98173.19
2022-10-21T19:58:14.497Z,98180.22
2022-10-21T20:01:23.436Z,98180.66
2022-10-21T20:04:35.209Z,98183.47
2022-10-21T20:07:42.704Z,98181.13
2022-10-21T20:10:49.255Z,98186.72
2022-10-21T20:13:55.738Z,98175.56
2022-10-21T20:17:03.535Z,98168.09
2022-10-21T20:20:13.237Z,98171.91
2022-10-21T20:23:20.182Z,98167.00
2022-10-21T20:26:26.862Z,98177.03
2022-10-21T20:29:32.700Z,98183.47
2022-10-21T20:32:39.156Z,98181.28
2022-10-21T20:35:47.580Z,98191.09
2022-10-21T20:38:56.059Z,98191.25
2022-10-21T20:42:03.590Z,98195.00
2022-10-21T20:45:10.870Z,98191.63
2022-10-21T20:48:16.774Z,98190.78
2022-10-21T20:51:29.090Z,98187.31
2022-10-21T20:54:34.647Z,98181.31
2022-10-21T20:57:41.386Z,98183.19
2022-10-21T21:00:47.338Z,98172.59
2022-10-21T21:03:54.779Z,98159.34
2022-10-21T21:07:03.283Z,98161.09
2022-10-21T21:10:10.599Z,98163.91
2022-10-21T21:13:16.653Z,98162.88
2022-10-21T21:16:25.416Z,98151.38
2022-10-21T21:19:30.985Z,98145.78
2022-10-21T21:22:41.638Z,98133.94
2022-10-21T21:25:47.758Z,98127.69
2022-10-21T21:28:54.522Z,98138.16
2022-10-21T21:32:00.415Z,98147.13
2022-10-21T21:35:10.074Z,98136.91
2022-10-21T21:38:18.472Z,98132.81
2022-10-21T21:41:26.117Z,98130.94
2022-10-21T21:44:31.868Z,98125.94
2022-10-21T21:47:38.573Z,98136.50
2022-10-21T21:50:45.354Z,98140.91
2022-10-21T21:53:54.954Z,98146.13
2022-10-21T21:57:27.316Z,98150.63
2022-10-21T22:00:27.334Z,98151.38
2022-10-21T22:03:32.915Z,98147.84
2022-10-21T22:06:40.852Z,98151.22
2022-10-21T22:09:49.537Z,98142.44
2022-10-21T22:12:56.705Z,98137.19
2022-10-21T22:16:02.781Z,98142.44
2022-10-21T22:19:09.248Z,98146.72
2022-10-21T22:22:14.881Z,98144.28
2022-10-21T22:25:24.247Z,98136.34
2022-10-21T22:28:30.470Z,98130.25
2022-10-21T22:31:36.981Z,98137.38
2022-10-21T22:34:42.688Z,98146.13
2022-10-21T22:37:49.121Z,98129.50
2022-10-21T22:41:06.042Z,98117.72
2022-10-21T22:44:14.043Z,98114.19
2022-10-21T22:47:23.482Z,98112.31
2022-10-21T22:50:33.118Z,98108.94
2022-10-21T22:53:39.436Z,98114.00
2022-10-21T22:56:48.925Z,98110.25
2022-10-21T22:59:54.549Z,98102.50
2022-10-21T23:03:02.034Z,98109.41
2022-10-21T23:06:09.993Z,98109.25
2022-10-21T23:09:16.568Z,98097.56
2022-10-21T23:12:25.062Z,98106.84
2022-10-21T23:15:31.506Z,98112.72
2022-10-21T23:18:37.552Z,98121.34
2022-10-21T23:21:44.232Z,98115.34
2022-10-21T23:24:50.269Z,98127.06
2022-10-21T23:27:59.831Z,98105.13
2022-10-21T23:31:08.168Z,98107.69
2022-10-21T23:34:15.171Z,98114.59
2022-10-21T23:40:32.324Z,98122.56
2022-10-21T23:43:40.809Z,98110.56
2022-10-21T23:46:48.258Z,98110.56
2022-10-21T23:49:53.808Z,98109.75
2022-10-21T23:53:00.337Z,98110.56
2022-10-21T23:56:08.450Z,98105.25
2022-10-21T23:59:17.715Z,98105.31
